Time;durP1;ratioP1;P1;durP2;ratioP2;P2;SDS_P1;SDS_P2;PMS_P1;PMS_P2;Temp;Humidity;BMP_temperature;BMP_pressure;BME280_temperature;BME280_humidity;BME280_pressure;Samples;Min_cycle;Max_cycle;Signal;HPM_P1;HPM_P2
2023/02/27 00:00:53;;;;;;;20.40;5.82;;;;;;;10.55;100.00;92248.81;5051214;28;20070;-71
2023/02/27 00:03:19;;;;;;;20.60;5.70;;;;;;;10.51;100.00;92242.63;5051248;28;20092;-71
2023/02/27 00:05:46;;;;;;;13.35;4.88;;;;;;;10.46;100.00;92248.44;5051261;28;20045;-71
2023/02/27 00:08:13;;;;;;;18.75;4.75;;;;;;;10.42;100.00;92242.97;5050803;28;20525;-71
2023/02/27 00:10:40;;;;;;;23.88;5.95;;;;;;;10.35;100.00;92234.63;5050835;28;20041;-70
2023/02/27 00:13:07;;;;;;;21.40;5.22;;;;;;;10.35;100.00;92238.97;5051321;28;20444;-70
2023/02/27 00:15:37;;;;;;;19.67;5.30;;;;;;;10.33;100.00;92241.00;5050968;28;20041;-71
2023/02/27 00:18:04;;;;;;;21.52;6.82;;;;;;;10.27;100.00;92238.34;5051181;28;20385;-71
2023/02/27 00:20:36;;;;;;;19.75;5.50;;;;;;;10.21;100.00;92235.94;5050920;28;20123;-71
2023/02/27 00:23:03;;;;;;;15.65;5.18;;;;;;;10.24;100.00;92250.88;5051075;28;20041;-71
2023/02/27 00:25:30;;;;;;;18.63;4.97;;;;;;;10.22;100.00;92238.28;5069355;28;20110;-71
2023/02/27 00:27:56;;;;;;;19.50;4.90;;;;;;;10.24;100.00;92241.38;5071034;28;20060;-71
2023/02/27 00:30:25;;;;;;;13.43;5.72;;;;;;;10.21;100.00;92244.41;5070800;28;20072;-71
2023/02/27 00:32:54;;;;;;;17.48;4.25;;;;;;;10.21;100.00;92238.50;5070475;28;20051;-71
2023/02/27 00:35:21;;;;;;;20.98;5.43;;;;;;;10.25;100.00;92249.88;5070820;28;20068;-71
2023/02/27 00:37:48;;;;;;;14.98;4.90;;;;;;;10.33;100.00;92257.19;5070726;28;20120;-71
2023/02/27 00:40:15;;;;;;;17.27;4.43;;;;;;;10.25;100.00;92244.72;5070473;28;20484;-71
2023/02/27 00:42:41;;;;;;;16.10;4.80;;;;;;;10.09;100.00;92221.38;5070672;28;20052;-71
2023/02/27 00:45:09;;;;;;;15.38;5.28;;;;;;;10.37;100.00;92265.22;5070769;28;20401;-70
2023/02/27 00:47:36;;;;;;;19.63;5.00;;;;;;;10.43;100.00;92257.38;5070248;28;20071;-70
2023/02/27 00:50:05;;;;;;;20.98;5.10;;;;;;;10.36;100.00;92263.63;5070397;28;20508;-70
2023/02/27 00:52:33;;;;;;;17.00;5.32;;;;;;;10.37;100.00;92265.22;5070379;28;20059;-70
2023/02/27 00:55:00;;;;;;;19.13;5.57;;;;;;;10.38;100.00;92259.81;5070446;28;20048;-70
2023/02/27 00:57:27;;;;;;;16.10;5.22;;;;;;;10.28;100.00;92244.28;5070469;28;20093;-70
2023/02/27 00:59:54;;;;;;;14.48;4.63;;;;;;;10.39;100.00;92246.00;5069882;28;20070;-70
2023/02/27 01:02:20;;;;;;;18.17;5.72;;;;;;;10.39;100.00;92252.91;5069951;28;20080;-70
2023/02/27 01:04:47;;;;;;;17.27;4.63;;;;;;;10.42;100.00;92250.66;5070402;28;20048;-70
2023/02/27 01:07:15;;;;;;;15.85;5.55;;;;;;;10.36;100.00;92245.66;5061976;28;20045;-70
2023/02/27 01:09:42;;;;;;;17.38;4.70;;;;;;;10.35;100.00;92250.03;5050379;28;20069;-70
2023/02/27 01:12:09;;;;;;;18.20;4.90;;;;;;;10.33;100.00;92244.38;5049848;28;20045;-70
2023/02/27 01:14:36;;;;;;;19.73;5.07;;;;;;;10.36;100.00;92246.47;5049749;28;20059;-70
2023/02/27 01:17:03;;;;;;;21.38;5.80;;;;;;;10.24;100.00;92225.97;5049723;28;20563;-70
2023/02/27 01:19:30;;;;;;;18.95;4.75;;;;;;;10.38;100.00;92244.41;5050173;28;20409;-70
2023/02/27 01:21:56;;;;;;;19.25;5.28;;;;;;;10.40;100.00;92239.06;5049582;28;20106;-70
2023/02/27 01:24:25;;;;;;;21.90;5.45;;;;;;;10.42;100.00;92242.19;5049732;28;20069;-70
2023/02/27 01:26:52;;;;;;;20.98;5.22;;;;;;;10.39;100.00;92251.13;5049468;28;20048;-71
2023/02/27 01:29:19;;;;;;;20.17;6.57;;;;;;;10.38;100.00;92254.69;5049667;28;20350;-70
2023/02/27 01:31:47;;;;;;;25.95;5.97;;;;;;;10.40;100.00;92249.34;5049486;28;20040;-70
2023/02/27 01:34:14;;;;;;;23.00;5.95;;;;;;;10.42;100.00;92260.94;5049630;28;20041;-70
2023/02/27 01:36:41;;;;;;;25.92;6.68;;;;;;;10.38;100.00;92267.53;5049633;28;20073;-71
2023/02/27 01:39:08;;;;;;;22.08;5.78;;;;;;;10.40;100.00;92270.66;5049622;28;20102;-70
2023/02/27 01:41:36;;;;;;;22.50;6.07;;;;;;;10.43;100.00;92279.72;5049213;28;20053;-70
2023/02/27 01:44:05;;;;;;;24.77;5.30;;;;;;;10.41;100.00;92287.63;5049499;28;20095;-70
2023/02/27 01:46:33;;;;;;;30.15;6.32;;;;;;;10.40;100.00;92293.75;5049577;28;20135;-71
2023/02/27 01:49:03;;;;;;;24.83;6.00;;;;;;;10.45;100.00;92305.16;5049288;28;20102;-71
2023/02/27 01:51:34;;;;;;;18.80;5.75;;;;;;;10.46;100.00;92311.84;5051677;28;20042;-71
2023/02/27 01:54:04;;;;;;;19.38;4.93;;;;;;;10.49;100.00;92306.25;5049124;28;20048;-71
2023/02/27 01:56:31;;;;;;;16.45;5.03;;;;;;;10.52;100.00;92328.91;5049372;28;20060;-70
2023/02/27 01:59:06;;;;;;;18.75;5.13;;;;;;;10.43;100.00;92331.81;5048992;28;20052;-71
2023/02/27 02:01:35;;;;;;;18.48;4.88;;;;;;;10.52;100.00;92357.16;5048903;28;20048;-71
2023/02/27 02:04:07;;;;;;;10.48;3.35;;;;;;;10.35;100.00;92423.81;5048805;28;20398;-71
2023/02/27 02:06:36;;;;;;;9.98;2.38;;;;;;;9.83;100.00;92410.75;5048990;28;20102;-71
2023/02/27 02:09:04;;;;;;;28.33;9.50;;;;;;;9.28;100.00;92378.50;5048909;28;20061;-71
2023/02/27 02:11:31;;;;;;;20.48;9.50;;;;;;;9.08;100.00;92407.81;5049239;28;20041;-71
2023/02/27 02:14:01;;;;;;;13.52;5.40;;;;;;;9.01;100.00;92437.84;5048967;28;20382;-71
2023/02/27 02:17:00;;;;;;;4.75;1.23;;;;;;;8.85;100.00;92464.84;5048765;28;20045;-71
2023/02/27 02:20:06;;;;;;;2.05;0.60;;;;;;;8.73;100.00;92475.84;5048876;28;20083;-72
2023/02/27 02:23:11;;;;;;;1.42;0.40;;;;;;;8.55;100.00;92462.06;5048819;28;20068;-71
2023/02/27 02:25:51;;;;;;;;;;;;;;;8.62;100.00;92467.13;5049395;28;20469;-72
2023/02/27 02:28:36;;;;;;;1.75;0.63;;;;;;;8.57;100.00;92486.66;5048696;28;19978;-72
2023/02/27 02:31:31;;;;;;;1.90;0.80;;;;;;;8.57;100.00;92492.56;5049022;28;20037;-72
2023/02/27 02:34:25;;;;;;;3.47;1.27;;;;;;;8.57;100.00;92502.81;5057328;28;20122;-71
2023/02/27 02:37:17;;;;;;;6.88;2.80;;;;;;;8.55;100.00;92509.91;5068660;28;20767;-72
2023/02/27 02:40:05;;;;;;;5.30;1.50;;;;;;;8.58;100.00;92508.69;5068716;28;20040;-71
2023/02/27 02:42:37;;;;;;;4.68;1.25;;;;;;;8.60;100.00;92499.81;5068602;28;20045;-71
2023/02/27 02:45:14;;;;;;;4.28;1.17;;;;;;;8.58;100.00;92491.56;5068497;28;20492;-71
2023/02/27 02:47:52;;;;;;;3.78;1.60;;;;;;;8.50;100.00;92502.84;5068437;28;20090;-71
2023/02/27 02:50:24;;;;;;;3.47;1.60;;;;;;;8.39;100.00;92490.78;5068473;28;20451;-71
2023/02/27 02:53:01;;;;;;;4.40;1.35;;;;;;;8.50;100.00;92517.41;5068729;28;20048;-71
2023/02/27 02:55:34;;;;;;;4.38;1.35;;;;;;;8.42;100.00;92503.13;5068752;28;20489;-71
2023/02/27 02:58:06;;;;;;;3.50;0.70;;;;;;;8.34;100.00;92503.41;5068632;28;20474;-71
2023/02/27 03:00:38;;;;;;;3.65;0.70;;;;;;;8.24;100.00;92524.38;5068229;28;20505;-71
2023/02/27 03:03:10;;;;;;;2.95;0.70;;;;;;;8.24;100.00;92530.28;5069986;28;20052;-70
2023/02/27 03:05:41;;;;;;;3.15;1.20;;;;;;;8.27;100.00;92545.22;5072346;28;20052;-71
2023/02/27 03:08:13;;;;;;;3.08;1.00;;;;;;;8.34;100.00;92555.38;5072564;28;20090;-71
2023/02/27 03:10:48;;;;;;;3.90;1.38;;;;;;;8.32;100.00;92571.94;5072286;28;20048;-71
2023/02/27 03:13:22;;;;;;;4.80;1.53;;;;;;;8.27;100.00;92562.34;5072179;28;20049;-71
2023/02/27 03:15:55;;;;;;;3.58;1.60;;;;;;;8.32;100.00;92574.50;5072228;28;20101;-71
2023/02/27 03:18:26;;;;;;;4.05;1.67;;;;;;;8.36;100.00;92593.53;5072305;28;20122;-72
2023/02/27 03:20:57;;;;;;;3.83;1.30;;;;;;;8.41;100.00;92604.72;5072250;28;20044;-71
2023/02/27 03:23:30;;;;;;;2.85;1.10;;;;;;;8.42;100.00;92595.25;5071862;28;20048;-71
2023/02/27 03:26:00;;;;;;;3.42;1.50;;;;;;;8.42;100.00;92603.72;5072213;28;20459;-71
2023/02/27 03:28:31;;;;;;;3.22;1.30;;;;;;;8.22;100.00;92592.88;5072245;28;20090;-71
2023/02/27 03:31:04;;;;;;;3.60;0.98;;;;;;;8.29;100.00;92627.66;5071761;28;20080;-71
2023/02/27 03:33:36;;;;;;;3.38;0.90;;;;;;;8.21;100.00;92615.13;5071961;28;20133;-71
2023/02/27 03:36:09;;;;;;;5.60;1.50;;;;;;;8.28;100.00;92630.41;5071902;28;20079;-72
2023/02/27 03:38:41;;;;;;;2.85;1.20;;;;;;;8.17;100.00;92613.97;5071988;28;20106;-71
2023/02/27 03:41:14;;;;;;;3.15;0.65;;;;;;;8.25;100.00;92623.19;5071607;28;20505;-71
2023/02/27 03:43:48;;;;;;;3.53;0.93;;;;;;;8.27;100.00;92621.19;5071474;28;20520;-71
2023/02/27 03:46:17;;;;;;;2.22;0.75;;;;;;;8.29;100.00;92634.56;5071381;28;20041;-71
2023/02/27 03:48:45;;;;;;;3.33;0.93;;;;;;;8.32;100.00;92631.56;5071494;28;20778;-71
2023/02/27 03:51:13;;;;;;;2.42;0.98;;;;;;;8.33;100.00;92633.13;5071682;28;20079;-71
2023/02/27 03:53:47;;;;;;;3.35;1.00;;;;;;;8.34;100.00;92636.50;5071659;28;20090;-71
2023/02/27 03:56:20;;;;;;;3.55;0.77;;;;;;;8.26;100.00;92640.09;5071293;28;20040;-71
2023/02/27 03:58:47;;;;;;;4.15;0.90;;;;;;;8.23;100.00;92643.06;5071342;28;20626;-71
2023/02/27 04:01:14;;;;;;;3.05;0.70;;;;;;;8.16;100.00;92654.13;5055201;28;20041;-71
2023/02/27 04:03:48;;;;;;;3.38;0.77;;;;;;;8.10;100.00;92657.50;5051455;28;20122;-71
2023/02/27 04:09:05;;;;;;;4.95;1.23;;;;;;;7.95;100.00;92674.91;5051618;28;20504;-71
2023/02/27 04:11:54;;;;;;;3.20;1.35;;;;;;;7.96;100.00;92686.75;5050926;28;20088;-71
2023/02/27 04:14:39;;;;;;;4.35;1.40;;;;;;;7.97;100.00;92691.63;5050812;28;20049;-71
2023/02/27 04:17:16;;;;;;;9.15;2.38;;;;;;;8.01;100.00;92694.59;5051204;28;20081;-70
2023/02/27 04:20:03;;;;;;;5.05;2.38;;;;;;;8.02;100.00;92691.81;5051244;28;20048;-71
2023/02/27 04:22:36;;;;;;;6.78;2.40;;;;;;;8.00;100.00;92703.22;5051147;28;20045;-71
2023/02/27 04:25:21;;;;;;;5.85;2.35;;;;;;;7.99;100.00;92694.78;5050803;28;20091;-70
2023/02/27 04:27:54;;;;;;;7.93;2.00;;;;;;;7.88;100.00;92711.56;5050726;28;20045;-70
2023/02/27 04:30:28;;;;;;;6.32;2.03;;;;;;;7.88;100.00;92705.66;5067646;28;20067;-70
2023/02/27 04:33:03;;;;;;;6.15;2.10;;;;;;;7.91;100.00;92718.03;5070959;28;20122;-70
2023/02/27 04:35:36;;;;;;;5.68;1.65;;;;;;;7.84;100.00;92733.44;5070776;28;20493;-70
2023/02/27 04:38:09;;;;;;;4.68;1.80;;;;;;;7.87;100.00;92745.78;5070789;28;20044;-70
2023/02/27 04:40:43;;;;;;;9.20;1.83;;;;;;;7.90;100.00;92739.47;5070799;28;20048;-70
2023/02/27 04:43:14;;;;;;;7.28;1.52;;;;;;;7.75;100.00;92720.09;5068089;28;20111;-71
2023/02/27 04:45:43;;;;;;;9.13;1.70;;;;;;;7.85;100.00;92742.66;5070327;28;20045;-70
2023/02/27 04:48:16;;;;;;;6.35;1.70;;;;;;;7.89;100.00;92743.03;5070784;28;20114;-70
2023/02/27 04:50:48;;;;;;;8.80;2.25;;;;;;;7.92;100.00;92752.06;5070420;28;20099;-70
2023/02/27 04:53:21;;;;;;;4.32;1.83;;;;;;;7.78;100.00;92733.44;5070184;28;20094;-71
2023/02/27 04:55:50;;;;;;;7.50;2.00;;;;;;;7.89;100.00;92758.38;5070573;28;20037;-71
2023/02/27 04:58:23;;;;;;;7.88;2.10;;;;;;;7.89;100.00;92766.06;5070560;28;20124;-71
2023/02/27 05:00:57;;;;;;;5.53;2.08;;;;;;;7.87;100.00;92768.03;5070203;28;20097;-71
2023/02/27 05:03:26;;;;;;;16.02;4.43;;;;;;;7.87;100.00;92763.69;5069985;28;20076;-71
2023/02/27 05:05:57;;;;;;;10.05;2.75;;;;;;;7.86;100.00;92766.44;5070115;28;20045;-71
2023/02/27 05:08:30;;;;;;;8.75;2.22;;;;;;;7.86;100.00;92774.13;5069962;28;20504;-71
2023/02/27 05:11:04;;;;;;;7.80;1.67;;;;;;;7.81;100.00;92777.28;5067336;28;20044;-71
2023/02/27 05:13:35;;;;;;;6.78;1.63;;;;;;;7.82;100.00;92778.84;5048688;28;20173;-71
2023/02/27 05:16:09;;;;;;;7.43;1.90;;;;;;;7.79;100.00;92786.16;5050073;28;20083;-71
2023/02/27 05:18:36;;;;;;;7.28;1.80;;;;;;;7.79;100.00;92786.16;5049719;28;20084;-71
2023/02/27 05:21:15;;;;;;;8.50;1.95;;;;;;;7.84;100.00;92794.00;5049938;28;20175;-71
2023/02/27 05:23:48;;;;;;;10.02;1.83;;;;;;;7.85;100.00;92804.03;5049796;28;20076;-71
2023/02/27 05:26:19;;;;;;;9.57;2.25;;;;;;;7.94;100.00;92802.03;5054173;28;20080;-72
2023/02/27 05:28:53;;;;;;;6.85;1.88;;;;;;;7.97;100.00;92804.16;5053172;28;20117;-72
2023/02/27 05:31:26;;;;;;;9.20;2.05;;;;;;;8.00;100.00;92806.31;5069491;28;20047;-72
2023/02/27 05:33:59;;;;;;;7.85;2.20;;;;;;;7.99;100.00;92809.09;5069494;28;20051;-72
2023/02/27 05:36:33;;;;;;;9.38;2.35;;;;;;;8.04;100.00;92811.81;5069695;28;20041;-72
2023/02/27 05:39:04;;;;;;;6.03;1.95;;;;;;;8.02;100.00;92814.56;5066224;28;20048;-71
2023/02/27 05:41:34;;;;;;;5.88;2.00;;;;;;;7.98;100.00;92815.19;5067392;28;20090;-71
2023/02/27 05:44:08;;;;;;;11.73;2.40;;;;;;;7.92;100.00;92793.00;5069030;28;20421;-72
2023/02/27 05:46:38;;;;;;;6.85;2.40;;;;;;;7.76;100.00;92779.66;5069322;28;20044;-71
2023/02/27 05:49:11;;;;;;;10.60;2.20;;;;;;;7.52;100.00;92735.13;5069371;28;20071;-72
2023/02/27 05:51:40;;;;;;;21.13;5.38;;;;;;;7.99;100.00;92815.00;5069014;28;20044;-71
2023/02/27 05:54:12;;;;;;;7.22;3.40;;;;;;;8.08;100.00;92810.44;5069163;28;20546;-70
2023/02/27 05:56:42;;;;;;;11.35;3.28;;;;;;;8.10;100.00;92813.56;5068994;28;20462;-69
2023/02/27 05:59:17;;;;;;;7.18;3.40;;;;;;;8.20;100.00;92817.47;5069334;28;20094;-70
2023/02/27 06:01:44;;;;;;;12.95;5.45;;;;;;;8.28;100.00;92822.31;5069371;28;20078;-70
2023/02/27 06:04:10;;;;;;;12.63;4.90;;;;;;;8.34;100.00;92816.38;5068889;28;20080;-72
2023/02/27 06:06:39;;;;;;;10.32;5.15;;;;;;;8.41;100.00;92827.41;5069220;28;20053;-71
2023/02/27 06:09:06;;;;;;;14.07;6.10;;;;;;;8.48;100.00;92826.56;5069093;28;20463;-71
2023/02/27 06:11:33;;;;;;;11.65;5.75;;;;;;;8.58;100.00;92829.50;5068948;28;20066;-71
2023/02/27 06:14:02;;;;;;;14.75;6.65;;;;;;;8.63;100.00;92821.97;5069144;28;20049;-71
2023/02/27 06:16:30;;;;;;;12.13;6.55;;;;;;;8.72;100.00;92829.41;5068946;28;20470;-71
2023/02/27 06:18:57;;;;;;;12.93;6.47;;;;;;;8.78;100.00;92831.94;5069011;28;20458;-71
2023/02/27 06:21:23;;;;;;;9.00;4.28;;;;;;;8.48;100.00;92836.81;5068890;28;20052;-71
2023/02/27 06:23:50;;;;;;;8.85;5.20;;;;;;;8.40;100.00;92840.38;5068572;28;20501;-71
2023/02/27 06:26:17;;;;;;;9.15;4.68;;;;;;;8.43;100.00;92845.88;5068793;28;20382;-71
2023/02/27 06:28:43;;;;;;;7.95;4.30;;;;;;;8.36;100.00;92854.56;5068817;28;20106;-71
2023/02/27 06:31:10;;;;;;;11.00;4.97;;;;;;;8.46;100.00;92849.81;5068431;28;20045;-71
2023/02/27 06:33:38;;;;;;;14.43;6.65;;;;;;;8.52;100.00;92855.91;5069086;28;20045;-71
2023/02/27 06:36:05;;;;;;;11.27;5.25;;;;;;;8.52;100.00;92861.81;5068354;28;20049;-71
2023/02/27 06:38:32;;;;;;;8.65;4.57;;;;;;;8.50;100.00;92848.41;5068300;28;20154;-71
2023/02/27 06:40:59;;;;;;;11.00;5.38;;;;;;;8.37;100.00;92874.06;5068857;28;20045;-72
2023/02/27 06:43:26;;;;;;;7.43;3.70;;;;;;;8.21;100.00;92868.44;5068432;28;20036;-71
2023/02/27 06:45:54;;;;;;;6.80;3.67;;;;;;;7.87;100.00;92871.09;5068644;28;20095;-71
2023/02/27 06:48:20;;;;;;;7.00;3.83;;;;;;;7.38;100.00;92862.94;5068598;28;20523;-71
2023/02/27 06:50:52;;;;;;;7.72;4.00;;;;;;;7.53;100.00;92870.38;5068802;28;20044;-71
2023/02/27 06:53:19;;;;;;;7.85;4.50;;;;;;;7.51;100.00;92864.69;5065836;28;20045;-71
2023/02/27 06:55:46;;;;;;;5.75;3.38;;;;;;;7.25;100.00;92871.38;5068711;28;20147;-71
2023/02/27 06:58:12;;;;;;;8.13;4.30;;;;;;;7.28;100.00;92872.75;5068117;28;20048;-72
2023/02/27 07:00:43;;;;;;;7.13;4.70;;;;;;;7.34;100.00;92877.06;5068154;28;20053;-71
2023/02/27 07:03:09;;;;;;;8.65;4.32;;;;;;;7.12;100.00;92861.94;5068474;28;20127;-71
2023/02/27 07:05:36;;;;;;;5.72;3.83;;;;;;;7.12;100.00;92873.94;5068412;28;20130;-71
2023/02/27 07:08:04;;;;;;;6.97;4.57;;;;;;;7.36;100.00;92887.88;5068254;28;20063;-71
2023/02/27 07:10:31;;;;;;;7.13;4.15;;;;;;;7.51;100.00;92894.56;5068527;28;20044;-71
2023/02/27 07:12:58;;;;;;;7.13;3.90;;;;;;;7.70;100.00;92896.31;5068193;28;20084;-71
2023/02/27 07:15:25;;;;;;;8.85;4.55;;;;;;;7.86;100.00;92899.41;5068148;28;20083;-71
2023/02/27 07:17:53;;;;;;;7.05;4.32;;;;;;;7.92;100.00;92901.16;5068133;28;20137;-71
2023/02/27 07:20:20;;;;;;;9.55;5.43;;;;;;;7.85;100.00;92908.88;5068042;28;20072;-71
2023/02/27 07:22:46;;;;;;;9.20;6.00;;;;;;;7.40;100.00;92890.84;5068465;28;20068;-71
2023/02/27 07:25:14;;;;;;;11.23;6.45;;;;;;;7.42;100.00;92907.56;5068350;28;20142;-71
2023/02/27 07:27:43;;;;;;;15.80;8.02;;;;;;;7.30;100.00;92911.66;5064613;28;20049;-70
2023/02/27 07:30:11;;;;;;;12.35;7.28;;;;;;;7.01;100.00;92913.63;5063513;28;20053;-71
2023/02/27 07:32:38;;;;;;;16.48;10.65;;;;;;;6.78;100.00;92907.91;5068444;28;20044;-70
2023/02/27 07:35:05;;;;;;;15.98;10.25;;;;;;;6.73;100.00;92909.44;5068216;28;20084;-70
2023/02/27 07:37:32;;;;;;;15.07;8.93;;;;;;;7.02;100.00;92900.66;5067993;28;20056;-70
2023/02/27 07:39:59;;;;;;;11.35;8.27;;;;;;;7.33;100.00;92906.16;5068409;28;20060;-70
2023/02/27 07:42:27;;;;;;;16.40;8.73;;;;;;;7.19;100.00;92916.38;5068305;28;20076;-71
2023/02/27 07:44:53;;;;;;;15.85;8.02;;;;;;;7.60;100.00;92924.81;5068239;28;20122;-70
2023/02/27 07:47:20;;;;;;;16.85;9.70;;;;;;;7.91;100.00;92926.97;5068596;28;20416;-71
2023/02/27 07:49:47;;;;;;;16.63;8.60;;;;;;;8.26;100.00;92921.56;5070346;28;20049;-71
2023/02/27 07:52:13;;;;;;;24.80;9.02;;;;;;;8.31;100.00;92931.97;5072020;28;20044;-71
2023/02/27 07:54:40;;;;;;;17.75;9.15;;;;;;;8.54;100.00;92925.59;5071588;28;20045;-71
2023/02/27 07:57:07;;;;;;;20.30;10.18;;;;;;;8.43;100.00;92929.56;5071759;28;20045;-71
2023/02/27 07:59:35;;;;;;;22.10;9.07;;;;;;;8.28;100.00;92929.81;5071537;28;20474;-71
2023/02/27 08:02:02;;;;;;;28.60;11.48;;;;;;;7.86;100.00;92924.97;5072025;28;20045;-71
2023/02/27 08:04:28;;;;;;;16.75;8.20;;;;;;;7.86;100.00;92919.88;5071636;28;20051;-71
2023/02/27 08:06:56;;;;;;;22.48;7.78;;;;;;;7.63;100.00;92915.97;5071878;28;20048;-71
2023/02/27 08:09:22;;;;;;;15.77;7.97;;;;;;;7.53;100.00;92915.59;5071296;28;20059;-71
2023/02/27 08:11:49;;;;;;;22.90;9.10;;;;;;;7.67;100.00;92916.34;5071631;28;20048;-71
2023/02/27 08:14:16;;;;;;;38.05;10.32;;;;;;;7.79;100.00;92926.78;5071148;28;20044;-71
2023/02/27 08:16:44;;;;;;;37.55;9.43;;;;;;;7.79;100.00;92927.56;5071312;28;20102;-71
2023/02/27 08:19:12;;;;;;;41.25;11.15;;;;;;;7.73;100.00;92910.47;5071392;28;20402;-71
2023/02/27 08:21:39;;;;;;;35.08;10.77;;;;;;;7.78;100.00;92922.66;5068569;28;20049;-71
2023/02/27 08:24:06;;;;;;;33.88;9.38;;;;;;;7.42;100.00;92906.75;5070332;28;20118;-71
2023/02/27 08:26:32;;;;;;;31.15;10.20;;;;;;;7.83;100.00;92917.72;5070447;28;20056;-71
2023/02/27 08:28:59;;;;;;;23.75;8.57;;;;;;;8.14;100.00;92919.63;5070985;28;20048;-71
2023/02/27 08:31:26;;;;;;;17.40;6.72;;;;;;;8.51;100.00;92923.41;5070477;28;20044;-71
2023/02/27 08:33:54;;;;;;;24.40;7.45;;;;;;;8.99;100.00;92921.44;5070681;28;20087;-71
2023/02/27 08:36:20;;;;;;;15.07;6.47;;;;;;;8.85;100.00;92920.72;5061301;28;20040;-71
2023/02/27 08:38:47;;;;;;;22.13;6.75;;;;;;;9.03;100.00;92920.81;5051244;28;20440;-71
2023/02/27 08:41:15;;;;;;;25.10;7.68;;;;;;;8.59;100.00;92918.09;5066090;28;20043;-71
2023/02/27 08:46:26;;;;;;;33.67;8.23;;;;;;;8.14;100.00;92883.00;5071036;28;20129;-71
2023/02/27 08:48:54;;;;;;;30.00;8.45;;;;;;;8.48;100.00;92911.81;5069825;28;20102;-71
2023/02/27 08:51:21;;;;;;;35.70;9.93;;;;;;;8.67;100.00;92917.84;5070758;28;20048;-71
2023/02/27 08:53:48;;;;;;;39.28;10.15;;;;;;;9.00;100.00;92923.81;5070847;28;20098;-71
2023/02/27 08:56:14;;;;;;;33.00;8.35;;;;;;;9.46;100.00;92926.25;5067563;28;20134;-71
2023/02/27 08:58:41;;;;;;;31.35;8.88;;;;;;;9.81;100.00;92919.84;5060321;28;20455;-71
2023/02/27 09:01:08;;;;;;;33.30;8.73;;;;;;;9.99;100.00;92937.03;5051115;28;20117;-71
2023/02/27 09:03:36;;;;;;;29.05;8.77;;;;;;;10.15;100.00;92933.91;5040000;28;20049;-71
2023/02/27 09:06:04;;;;;;;37.65;8.57;;;;;;;10.00;100.00;92938.63;5046289;28;20052;-71
2023/02/27 09:08:31;;;;;;;28.95;8.75;;;;;;;10.42;100.00;92943.13;5056236;28;20049;-71
2023/02/27 09:10:57;;;;;;;35.30;8.48;;;;;;;10.66;100.00;92944.03;5051737;28;20103;-72
2023/02/27 09:13:25;;;;;;;45.97;11.38;;;;;;;10.64;100.00;92927.28;5053807;28;20428;-71
2023/02/27 09:15:52;;;;;;;32.72;8.77;;;;;;;10.67;100.00;92948.19;5052231;28;20041;-71
2023/02/27 09:18:19;;;;;;;26.48;7.03;;;;;;;10.47;100.00;92943.28;5066362;28;20037;-71
2023/02/27 09:20:46;;;;;;;25.13;6.53;;;;;;;10.76;100.00;92950.44;5062120;28;20401;-71
2023/02/27 09:23:14;;;;;;;18.23;6.95;;;;;;;10.75;100.00;92957.38;5057509;28;20059;-71
2023/02/27 09:25:40;;;;;;;22.35;7.15;;;;;;;10.56;100.00;92941.22;5067012;28;20041;-71
2023/02/27 09:28:07;;;;;;;18.98;6.00;;;;;;;10.66;100.00;92951.72;5070135;28;20102;-71
2023/02/27 09:30:35;;;;;;;25.70;6.10;;;;;;;10.68;100.00;92938.69;5069774;28;20052;-71
2023/02/27 09:33:02;;;;;;;22.42;7.13;;;;;;;10.75;100.00;92928.31;5070168;28;20044;-71
2023/02/27 09:35:28;;;;;;;32.20;8.45;;;;;;;11.21;100.00;92947.47;5057974;28;20048;-71
2023/02/27 09:37:57;;;;;;;26.10;7.88;;;;;;;10.88;100.00;92946.13;5068406;28;20067;-71
2023/02/27 09:40:27;;;;;;;18.25;5.95;;;;;;;10.76;100.00;92960.72;5069406;28;20177;-71
2023/02/27 09:42:59;;;;;;;26.77;6.90;;;;;;;10.80;100.00;92970.34;5069419;28;20086;-72
2023/02/27 09:45:28;;;;;;;22.30;6.00;;;;;;;11.11;100.00;92964.44;5069345;28;20048;-71
2023/02/27 09:47:58;;;;;;;22.95;6.70;;;;;;;11.45;100.00;92970.69;5069662;28;20393;-71
2023/02/27 09:50:36;;;;;;;19.33;5.47;;;;;;;11.60;100.00;92947.09;5055943;28;20045;-72
2023/02/27 09:53:04;;;;;;;21.70;4.68;;;;;;;11.61;100.00;92969.25;5068516;28;20045;-71
2023/02/27 09:55:38;;;;;;;16.10;5.32;;;;;;;11.66;100.00;92972.97;5069183;28;20500;-71
2023/02/27 09:58:14;;;;;;;21.15;6.38;;;;;;;11.84;100.00;92985.72;5069446;28;20102;-71
2023/02/27 10:00:47;;;;;;;18.75;5.45;;;;;;;11.81;100.00;92975.09;5069512;28;20048;-71
2023/02/27 10:03:30;;;;;;;11.68;4.63;;;;;;;11.74;100.00;92941.75;5069207;28;20049;-71
2023/02/27 10:06:11;;;;;;;10.02;3.55;;;;;;;12.25;100.00;92982.50;5069534;28;20087;-72
2023/02/27 10:08:46;;;;;;;9.23;3.58;;;;;;;12.36;99.55;92989.44;5069260;28;20040;-71
2023/02/27 10:11:17;;;;;;;13.48;4.38;;;;;;;12.65;100.00;92976.59;5068375;28;20075;-71
2023/02/27 10:13:57;;;;;;;12.10;4.30;;;;;;;12.97;100.00;92980.56;5069673;28;20052;-71
2023/02/27 10:16:26;;;;;;;18.73;6.20;;;;;;;13.36;100.00;92974.78;5069357;28;20044;-71
2023/02/27 10:18:57;;;;;;;10.98;3.83;;;;;;;13.70;97.38;92974.09;5069041;28;20098;-72
2023/02/27 10:21:30;;;;;;;20.98;7.65;;;;;;;13.83;95.67;92953.09;5068635;28;20048;-71
2023/02/27 10:24:01;;;;;;;15.48;4.57;;;;;;;14.26;94.57;92975.91;5069110;28;20090;-71
2023/02/27 10:26:33;;;;;;;15.75;4.32;;;;;;;14.43;89.71;92974.06;5068598;28;20044;-71
2023/02/27 10:29:13;;;;;;;18.38;4.32;;;;;;;14.52;92.42;92974.44;5069297;28;20048;-71
2023/02/27 10:31:42;;;;;;;11.43;2.83;;;;;;;14.47;87.58;92973.56;5068969;28;20106;-71
2023/02/27 10:34:15;;;;;;;40.13;11.45;;;;;;;14.21;84.25;92973.25;5068962;28;20049;-71
2023/02/27 10:36:42;;;;;;;15.52;4.07;;;;;;;14.61;84.96;92972.22;5068904;28;20498;-71
2023/02/27 10:39:14;;;;;;;9.55;3.03;;;;;;;14.86;84.77;92973.53;5068794;28;20048;-71
2023/02/27 10:41:44;;;;;;;10.40;3.40;;;;;;;14.79;80.89;92967.78;5068867;28;20048;-71
2023/02/27 10:44:14;;;;;;;12.98;3.65;;;;;;;14.78;79.55;92974.78;5069104;28;20083;-71
2023/02/27 10:46:41;;;;;;;13.02;5.30;;;;;;;15.15;83.56;92957.81;5068182;28;20668;-71
2023/02/27 10:49:15;;;;;;;11.50;3.60;;;;;;;15.33;81.95;92961.09;5069024;28;20393;-71
2023/02/27 10:51:43;;;;;;;13.15;2.63;;;;;;;15.63;79.52;92952.00;5068935;28;20045;-71
2023/02/27 10:54:24;;;;;;;20.55;5.97;;;;;;;15.75;78.37;92955.22;5065399;28;20055;-71
2023/02/27 10:56:54;;;;;;;8.40;2.45;;;;;;;16.00;72.31;92966.81;5068934;28;20045;-71
2023/02/27 10:59:24;;;;;;;12.00;2.00;;;;;;;16.16;70.23;92964.34;5068739;28;20523;-71
2023/02/27 11:01:53;;;;;;;12.10;4.88;;;;;;;16.30;67.23;92957.66;5069011;28;20125;-71
2023/02/27 11:04:31;;;;;;;14.65;2.25;;;;;;;16.33;66.92;92958.97;5068573;28;20094;-71
2023/02/27 11:06:58;;;;;;;4.22;1.50;;;;;;;16.36;66.92;92958.47;5068729;28;20157;-71
2023/02/27 11:09:27;;;;;;;13.05;5.95;;;;;;;16.36;66.26;92955.09;5068639;28;20048;-71
2023/02/27 11:12:10;;;;;;;8.38;4.68;;;;;;;16.20;65.16;92949.81;5068245;28;20048;-71
2023/02/27 11:14:48;;;;;;;13.00;4.60;;;;;;;16.11;66.83;92943.56;5069058;28;20052;-71
2023/02/27 11:17:23;;;;;;;11.98;2.63;;;;;;;16.17;66.87;92932.97;5068368;28;20048;-71
2023/02/27 11:19:50;;;;;;;7.97;3.90;;;;;;;16.24;65.39;92937.94;5069058;28;20048;-71
2023/02/27 11:22:19;;;;;;;19.52;8.80;;;;;;;16.28;66.98;92936.41;5068522;28;20044;-71
2023/02/27 11:24:46;;;;;;;6.90;2.13;;;;;;;16.31;65.48;92942.91;5071438;28;20051;-71
2023/02/27 11:27:25;;;;;;;8.75;3.58;;;;;;;16.34;65.26;92936.44;5071834;28;20098;-71
2023/02/27 11:30:00;;;;;;;13.60;6.20;;;;;;;16.23;66.70;92920.03;5072269;28;20159;-71
2023/02/27 11:32:35;;;;;;;8.85;1.83;;;;;;;16.34;65.98;92936.44;5072572;28;20422;-71
2023/02/27 11:35:03;;;;;;;17.13;5.05;;;;;;;16.00;70.20;92951.28;5072191;28;20554;-71
2023/02/27 11:37:33;;;;;;;7.10;3.53;;;;;;;15.71;66.88;92953.38;5072235;28;20040;-71
2023/02/27 11:40:05;;;;;;;6.95;4.07;;;;;;;15.28;70.10;92940.34;5071869;28;20052;-71
2023/02/27 11:42:35;;;;;;;9.75;4.22;;;;;;;14.85;73.28;92933.19;5072243;28;20078;-71
2023/02/27 11:45:05;;;;;;;10.88;5.05;;;;;;;14.33;75.87;92955.06;5072248;28;20086;-71
2023/02/27 11:47:35;;;;;;;10.88;5.25;;;;;;;14.09;77.34;92940.56;5066387;28;20098;-71